ZSSS/SHA METAR and TAF weather

Enter ICAO airport designator
Station Type Date Time Source
ZSSS METAR 2021/03/07 08:30 UTC NOAA

ZSSS 070830Z 36004MPS 7000 BKN006 09/08 Q1026 NOSIG


Station Type Date Time Source
ZSSS Decoded METAR 2021/03/07 08:30 UTC NOAA

Shanghai / Hongqiao, China (ZSSS) 31-10N 121-26E 3M
Mar 07, 2021 - 03:30 AM EST / 2021.03.07 0830 UTC
Wind: from the N (360 degrees) at 9 MPH (8 KT):0
Visibility: 4 mile(s):0
Sky conditions: mostly cloudy
Temperature: 48 F (9 C)
Dew Point: 46 F (8 C)
Relative Humidity: 93%
Pressure (altimeter): 30.30 in. Hg (1026 hPa)
ob: ZSSS 070830Z 36004MPS 7000 BKN006 09/08 Q1026 NOSIG
cycle: 8

Station Type Date Time Source
ZSSS TAF 2021/03/07 06:03 UTC NOAA

TAF TAF ZSSS 070307Z 0706/0806 04004MPS 6000 BKN009 TX12/0806Z TN08/0721Z
BECMG 0712/0714 BKN011
BECMG 0722/0724 BKN015

Example: see airport list